Pilot No. 4 — WDA5463 — position and weather

sailwx.info

Track history (hours):
 
Tides and Currents Weather Stations Pressure Air Temp Water Temp Dewpoint Dewpoint Depression Visibility Wind Speed Wind Dir Waves Ship Positions

Pilot No. 4

More information available from US FCC via Universal Licensing System and Coast Guard Vessel Documentation Center.

Last reported at 2014-Aug-28 00:33 UTC. Time now 2014-Aug-28 03:23 UTC.
Position N 26°05' W 080°05'.

MMSI: 495270931.

Date/timePositionNaut miles runAvg speedWind from/ knotsBaromVisibWave heightAir tempDewpointWater temp
2014-Aug-28 00:33N 26°05' W 080°05'2 1.6
2014-Aug-27 23:34N 26°05' W 080°07'0 0.2
2014-Aug-27 22:33N 26°06' W 080°07'1 0.2
2014-Aug-27 19:27N 26°06' W 080°07'1 1.0
2014-Aug-27 18:33N 26°06' W 080°07'1 0.6
2014-Aug-27 17:33N 26°05' W 080°07'  
2014-Aug-24 11:08N 26°06' W 080°07'3 5.3
2014-Aug-24 10:33N 26°06' W 080°04'3 2.9
2014-Aug-24 09:33N 26°05' W 080°07'1 0.7
2014-Aug-24 07:34N 26°06' W 080°06'1 1.4
2014-Aug-24 06:33N 26°05' W 080°07'1 0.3
2014-Aug-24 03:20N 26°06' W 080°07'1 1.2
2014-Aug-24 02:33N 26°06' W 080°07'0 0.5
2014-Aug-24 01:34N 26°06' W 080°07'4 3.9
2014-Aug-24 00:33N 26°06' W 080°03'2 2.5
2014-Aug-23 23:33N 26°06' W 080°05'2 1.7
2014-Aug-23 22:33N 26°04' W 080°07'5 4.8
2014-Aug-23 21:34N 26°06' W 080°02'5 4.8
2014-Aug-23 20:33N 26°06' W 080°07'1 0.0
2014-Aug-22 19:08N 26°06' W 080°07'1 1.2
2014-Aug-22 18:33N 26°06' W 080°07'1 0.7
2014-Aug-22 17:33N 26°06' W 080°07'1 1.2
2014-Aug-22 16:33N 26°06' W 080°06'1 0.1
2014-Aug-22 09:33N 26°06' W 080°07'1 1.2
2014-Aug-22 08:33N 26°05' W 080°07'1 0.2
2014-Aug-22 05:33N 26°05' W 080°07'0 0.1
2014-Aug-21 23:33N 26°06' W 080°07'0 0.3
2014-Aug-21 22:33N 26°06' W 080°07'1 0.6
2014-Aug-21 21:34N 26°06' W 080°07'2 1.6
2014-Aug-21 20:33N 26°06' W 080°05'1 1.3
2014-Aug-21 19:33N 26°05' W 080°07'1 0.3
2014-Aug-21 16:33N 26°06' W 080°07'4 3.6
2014-Aug-21 15:33N 26°06' W 080°03'3 3.4
2014-Aug-21 14:34N 26°05' W 080°07'0 0.2
2014-Aug-21 13:33N 26°05' W 080°07'2 1.6
2014-Aug-21 12:34N 26°06' W 080°05'1 1.4
2014-Aug-21 11:33N 26°06' W 080°04'3 0.3
2014-Aug-21 01:33N 26°06' W 080°07'0 0.0
2014-Aug-21 00:33N 26°06' W 080°07'0 0.0
2014-Aug-20 23:33N 26°06' W 080°07'0 0.0
2014-Aug-20 22:33N 26°06' W 080°07'0 0.0
2014-Aug-20 21:33N 26°06' W 080°07'2 1.7
2014-Aug-20 20:33N 26°06' W 080°05'1 1.1
2014-Aug-20 19:33N 26°06' W 080°07'  
Track history (hours):
 
Tides and Currents Weather Stations Pressure Air Temp Water Temp Dewpoint Dewpoint Depression Visibility Wind Speed Wind Dir Waves Ship Positions

Pilot No. 4

More information available from US FCC via Universal Licensing System and Coast Guard Vessel Documentation Center.

Last reported at 2014-Aug-28 00:33 UTC. Time now 2014-Aug-28 03:23 UTC.
Position N 26°05' W 080°05'.

MMSI: 495270931.

Date/timePositionNaut miles runAvg speedWind from/ knotsBaromVisibWave heightAir tempDewpointWater temp
2014-Aug-28 00:33N 26°05' W 080°05'2 1.6
2014-Aug-27 23:34N 26°05' W 080°07'0 0.2
2014-Aug-27 22:33N 26°06' W 080°07'1 0.2
2014-Aug-27 19:27N 26°06' W 080°07'1 1.0
2014-Aug-27 18:33N 26°06' W 080°07'1 0.6
2014-Aug-27 17:33N 26°05' W 080°07'  
2014-Aug-24 11:08N 26°06' W 080°07'3 5.3
2014-Aug-24 10:33N 26°06' W 080°04'3 2.9
2014-Aug-24 09:33N 26°05' W 080°07'1 0.7
2014-Aug-24 07:34N 26°06' W 080°06'1 1.4
2014-Aug-24 06:33N 26°05' W 080°07'1 0.3
2014-Aug-24 03:20N 26°06' W 080°07'1 1.2
2014-Aug-24 02:33N 26°06' W 080°07'0 0.5
2014-Aug-24 01:34N 26°06' W 080°07'4 3.9
2014-Aug-24 00:33N 26°06' W 080°03'2 2.5
2014-Aug-23 23:33N 26°06' W 080°05'2 1.7
2014-Aug-23 22:33N 26°04' W 080°07'5 4.8
2014-Aug-23 21:34N 26°06' W 080°02'5 4.8
2014-Aug-23 20:33N 26°06' W 080°07'1 0.0
2014-Aug-22 19:08N 26°06' W 080°07'1 1.2
2014-Aug-22 18:33N 26°06' W 080°07'1 0.7
2014-Aug-22 17:33N 26°06' W 080°07'1 1.2
2014-Aug-22 16:33N 26°06' W 080°06'1 0.1
2014-Aug-22 09:33N 26°06' W 080°07'1 1.2
2014-Aug-22 08:33N 26°05' W 080°07'1 0.2
2014-Aug-22 05:33N 26°05' W 080°07'0 0.1
2014-Aug-21 23:33N 26°06' W 080°07'0 0.3
2014-Aug-21 22:33N 26°06' W 080°07'1 0.6
2014-Aug-21 21:34N 26°06' W 080°07'2 1.6
2014-Aug-21 20:33N 26°06' W 080°05'1 1.3
2014-Aug-21 19:33N 26°05' W 080°07'1 0.3
2014-Aug-21 16:33N 26°06' W 080°07'4 3.6
2014-Aug-21 15:33N 26°06' W 080°03'3 3.4
2014-Aug-21 14:34N 26°05' W 080°07'0 0.2
2014-Aug-21 13:33N 26°05' W 080°07'2 1.6
2014-Aug-21 12:34N 26°06' W 080°05'1 1.4
2014-Aug-21 11:33N 26°06' W 080°04'3 0.3
2014-Aug-21 01:33N 26°06' W 080°07'0 0.0
2014-Aug-21 00:33N 26°06' W 080°07'0 0.0
2014-Aug-20 23:33N 26°06' W 080°07'0 0.0
2014-Aug-20 22:33N 26°06' W 080°07'0 0.0
2014-Aug-20 21:33N 26°06' W 080°07'2 1.7
2014-Aug-20 20:33N 26°06' W 080°05'1 1.1
2014-Aug-20 19:33N 26°06' W 080°07'  

Dump ship's entire track history